Terminal Aerodrome Forecast
Issued by NWS

Home | Current Version | Previous Version | Text Only | Print | Product List | Glossary On
Versions: 1 2 3 4 5 6 7 8 9 10 11 12 13 14 15 16 17 18
000
FTUS42 KRAH 051740
TAFRWI
TAF
KRWI 051740Z 0518/0618 01005KT P6SM SCT250
     FM060600 04004KT P6SM -RA BKN040 OVC110
     FM061000 06006KT 4SM -RA BR SCT007 BKN012 OVC025
     FM061300 06010KT 3SM -RA BR OVC007 PROB30 0615/0618 -TSRA
      BKN007 OVC040CB=

USA.gov is the U.S. government's official web portal to all federal, state and local government web resources and services.